createdAt,value
2022-12-31T00:00:01.925Z,5.1
2022-12-31T00:01:01.829Z,5.1
2022-12-31T00:02:02.010Z,5.1
2022-12-31T00:03:02.209Z,5.1
2022-12-31T00:04:01.351Z,5.1
2022-12-31T00:05:02.348Z,5
2022-12-31T00:06:02.223Z,5.1
2022-12-31T00:07:02.149Z,5.1
2022-12-31T00:08:02.074Z,5.1
2022-12-31T00:09:01.973Z,5
2022-12-31T00:10:01.869Z,5.1
2022-12-31T00:11:01.794Z,5
2022-12-31T00:12:01.731Z,5
2022-12-31T00:13:01.673Z,5
2022-12-31T00:14:01.643Z,5
2022-12-31T00:15:01.501Z,5
2022-12-31T00:16:03.259Z,5
2022-12-31T00:17:02.143Z,4.9
2022-12-31T00:18:02.027Z,5
2022-12-31T00:19:01.969Z,5
2022-12-31T00:20:01.923Z,5
2022-12-31T00:21:01.811Z,4.9
2022-12-31T00:22:01.759Z,4.9
2022-12-31T00:23:01.768Z,4.9
2022-12-31T00:24:03.737Z,4.9
2022-12-31T00:25:01.540Z,4.9
2022-12-31T00:26:01.453Z,4.9
2022-12-31T00:27:01.365Z,4.8
2022-12-31T00:28:02.317Z,4.8
2022-12-31T00:29:02.231Z,4.9
2022-12-31T00:30:04.610Z,4.9
2022-12-31T00:31:01.794Z,4.8
2022-12-31T00:32:01.970Z,4.9
2022-12-31T00:33:01.958Z,4.9
2022-12-31T00:34:01.860Z,4.8
2022-12-31T00:35:01.759Z,4.9
2022-12-31T00:36:01.668Z,4.9
2022-12-31T00:37:01.671Z,4.9
2022-12-31T00:38:01.656Z,5
2022-12-31T00:39:01.540Z,4.9
2022-12-31T00:40:01.526Z,4.9
2022-12-31T00:41:01.390Z,4.9
2022-12-31T00:42:01.383Z,5
2022-12-31T00:43:02.317Z,5
2022-12-31T00:44:02.246Z,4.9
2022-12-31T00:45:02.213Z,5
2022-12-31T00:46:02.090Z,5
2022-12-31T00:47:02.045Z,5
2022-12-31T00:48:02.198Z,4.9
2022-12-31T00:49:02.002Z,5
2022-12-31T00:50:02.024Z,5
2022-12-31T00:51:01.929Z,5
2022-12-31T00:52:01.795Z,5
2022-12-31T00:53:01.733Z,5
2022-12-31T00:54:01.668Z,5
2022-12-31T00:55:01.588Z,5
2022-12-31T00:56:01.554Z,5
2022-12-31T00:57:01.446Z,4.9
2022-12-31T00:58:01.406Z,5
2022-12-31T00:59:01.369Z,5.1
2022-12-31T01:00:02.328Z,5.1
2022-12-31T01:01:02.324Z,5.1
2022-12-31T01:02:01.443Z,5.1
2022-12-31T01:03:01.533Z,5.2
2022-12-31T01:04:01.607Z,5.2
2022-12-31T01:05:01.594Z,5.3
2022-12-31T01:06:01.548Z,5.3
2022-12-31T01:07:01.596Z,5.3
2022-12-31T01:08:01.599Z,5.3
2022-12-31T01:09:01.598Z,5.3
2022-12-31T01:10:01.448Z,5.3
2022-12-31T01:11:01.451Z,5.3
2022-12-31T01:12:01.409Z,5.3
2022-12-31T01:13:01.416Z,5.3
2022-12-31T01:14:01.342Z,5.3
2022-12-31T01:15:02.243Z,5.3
2022-12-31T01:16:02.273Z,5.3
2022-12-31T01:17:02.191Z,5.4
2022-12-31T01:18:02.187Z,5.4
2022-12-31T01:19:02.051Z,5.3
2022-12-31T01:20:02.040Z,5.3
2022-12-31T01:21:02.022Z,5.4
2022-12-31T01:22:01.989Z,5.4
2022-12-31T01:23:01.920Z,5.4
2022-12-31T01:24:01.822Z,5.4
2022-12-31T01:25:01.767Z,5.5
2022-12-31T01:26:01.803Z,5.5
2022-12-31T01:27:01.608Z,5.5
2022-12-31T01:28:01.571Z,5.5
2022-12-31T01:29:01.429Z,5.6
2022-12-31T01:30:01.403Z,5.5
2022-12-31T01:31:02.282Z,5.5
2022-12-31T01:32:02.244Z,5.5
2022-12-31T01:33:02.209Z,5.6
2022-12-31T01:34:02.112Z,5.6
2022-12-31T01:35:02.094Z,5.6
2022-12-31T01:36:01.979Z,5.6
2022-12-31T01:37:01.939Z,5.6
2022-12-31T01:38:01.931Z,5.7
2022-12-31T01:39:01.865Z,5.6
2022-12-31T01:40:01.783Z,5.6
2022-12-31T01:41:01.747Z,5.6
2022-12-31T01:42:01.667Z,5.6
2022-12-31T01:43:01.652Z,5.6
2022-12-31T01:44:01.600Z,5.6
2022-12-31T01:45:01.527Z,5.6
2022-12-31T01:46:01.439Z,5.6
2022-12-31T01:47:01.376Z,5.6
2022-12-31T01:48:01.370Z,5.6
2022-12-31T01:49:02.342Z,5.6
2022-12-31T01:50:02.282Z,5.6
2022-12-31T01:51:02.233Z,5.6
2022-12-31T01:52:02.167Z,5.6
2022-12-31T01:53:02.143Z,5.6
2022-12-31T01:54:02.058Z,5.6
2022-12-31T01:55:02.025Z,5.5
2022-12-31T01:56:01.973Z,5.5
2022-12-31T01:57:01.875Z,5.6
2022-12-31T01:58:01.809Z,5.6
2022-12-31T01:59:01.740Z,5.6
2022-12-31T02:00:01.693Z,5.6
2022-12-31T02:01:01.757Z,5.6
2022-12-31T02:02:01.592Z,5.7
2022-12-31T02:03:01.789Z,5.7
2022-12-31T02:04:01.770Z,5.6
2022-12-31T02:05:01.706Z,5.7
2022-12-31T02:06:01.666Z,5.7
2022-12-31T02:07:01.574Z,5.7
2022-12-31T02:08:01.547Z,5.7
2022-12-31T02:09:01.496Z,5.6
2022-12-31T02:10:01.927Z,5.7
2022-12-31T02:11:01.798Z,5.8
2022-12-31T02:12:01.716Z,5.7
2022-12-31T02:13:01.795Z,5.7
2022-12-31T02:14:01.647Z,5.8
2022-12-31T02:15:01.657Z,5.8
2022-12-31T02:16:01.597Z,5.8
2022-12-31T02:17:01.609Z,5.8
2022-12-31T02:18:01.595Z,5.8
2022-12-31T02:19:01.498Z,5.8
2022-12-31T02:20:01.420Z,5.8
2022-12-31T02:21:01.340Z,5.9
2022-12-31T02:22:01.451Z,5.9
2022-12-31T02:23:02.083Z,5.9
2022-12-31T02:24:02.023Z,5.8
2022-12-31T02:25:01.997Z,5.9
2022-12-31T02:26:01.887Z,5.9
2022-12-31T02:27:01.780Z,5.9
2022-12-31T02:28:01.750Z,5.9
2022-12-31T02:29:01.677Z,5.9
2022-12-31T02:30:01.649Z,5.9
2022-12-31T02:31:01.554Z,6
2022-12-31T02:32:01.583Z,6
2022-12-31T02:33:02.716Z,6
2022-12-31T02:34:01.716Z,6
2022-12-31T02:35:01.642Z,6
2022-12-31T02:36:01.612Z,6
2022-12-31T02:37:01.547Z,6.1
2022-12-31T02:38:01.427Z,6.1
2022-12-31T02:39:01.441Z,6
2022-12-31T02:40:01.323Z,6.1
2022-12-31T02:41:02.316Z,6.1
2022-12-31T02:42:02.244Z,6
2022-12-31T02:43:02.239Z,6
2022-12-31T02:44:02.158Z,6.1
2022-12-31T02:45:02.202Z,6.1
2022-12-31T02:46:02.045Z,6.1
2022-12-31T02:47:01.990Z,6.1
2022-12-31T02:48:01.991Z,6.1
2022-12-31T02:49:01.855Z,6.1
2022-12-31T02:50:01.780Z,6.1
2022-12-31T02:51:01.841Z,6.1
2022-12-31T02:52:01.762Z,6.1
2022-12-31T02:53:01.586Z,6
2022-12-31T02:54:01.564Z,6.1
2022-12-31T02:55:01.360Z,6.1
2022-12-31T02:56:01.434Z,6
2022-12-31T02:57:01.356Z,6.1
2022-12-31T02:58:02.352Z,6.1
2022-12-31T02:59:02.240Z,6.1
2022-12-31T03:00:02.313Z,6.1
2022-12-31T03:01:02.228Z,6.1
2022-12-31T03:02:01.485Z,6.2
2022-12-31T03:03:01.636Z,6.1
2022-12-31T03:04:01.505Z,6.1
2022-12-31T03:05:01.474Z,6.1
2022-12-31T03:06:01.330Z,6.1
2022-12-31T03:07:02.298Z,6.2
2022-12-31T03:08:02.169Z,6.2
2022-12-31T03:09:02.166Z,6.2
2022-12-31T03:10:02.029Z,6.2
2022-12-31T03:11:02.065Z,6.2
2022-12-31T03:12:01.846Z,6.2
2022-12-31T03:13:01.806Z,6.2
2022-12-31T03:14:01.837Z,6.2
2022-12-31T03:15:01.712Z,6.3
2022-12-31T03:16:01.737Z,6.3
2022-12-31T03:17:01.354Z,6.2
2022-12-31T03:18:01.408Z,6.2
2022-12-31T03:19:02.326Z,6.3
2022-12-31T03:20:02.229Z,6.3
2022-12-31T03:21:02.265Z,6.3
2022-12-31T03:22:02.112Z,6.3
2022-12-31T03:23:02.145Z,6.3
2022-12-31T03:24:02.003Z,6.3
2022-12-31T03:25:01.867Z,6.3
2022-12-31T03:26:01.955Z,6.3
2022-12-31T03:27:01.773Z,6.4
2022-12-31T03:28:01.686Z,6.4
2022-12-31T03:29:01.713Z,6.4
2022-12-31T03:30:01.566Z,6.4
2022-12-31T03:31:01.601Z,6.4
2022-12-31T03:32:01.391Z,6.4
2022-12-31T03:33:01.461Z,6.4
2022-12-31T03:34:02.404Z,6.4
2022-12-31T03:35:02.237Z,6.5
2022-12-31T03:36:02.275Z,6.4
2022-12-31T03:37:02.165Z,6.4
2022-12-31T03:38:02.128Z,6.4
2022-12-31T03:39:02.017Z,6.5
2022-12-31T03:40:01.988Z,6.5
2022-12-31T03:41:02.044Z,6.5
2022-12-31T03:42:01.841Z,6.5
2022-12-31T03:43:01.820Z,6.4
2022-12-31T03:44:01.788Z,6.5
2022-12-31T03:45:01.596Z,6.5
2022-12-31T03:46:01.820Z,6.5
2022-12-31T03:47:01.609Z,6.5
2022-12-31T03:48:01.612Z,6.5
2022-12-31T03:49:01.491Z,6.5
2022-12-31T03:50:01.559Z,6.5
2022-12-31T03:51:01.421Z,6.5
2022-12-31T03:52:01.478Z,6.5
2022-12-31T03:53:01.360Z,6.5
2022-12-31T03:54:02.385Z,6.5
2022-12-31T03:55:02.224Z,6.5
2022-12-31T03:56:02.227Z,6.5
2022-12-31T03:57:02.138Z,6.6
2022-12-31T03:58:02.168Z,6.6
2022-12-31T03:59:02.005Z,6.6
2022-12-31T04:00:02.079Z,6.6
2022-12-31T04:01:02.056Z,6.6
2022-12-31T04:02:01.996Z,6.6
2022-12-31T04:03:02.255Z,6.6
2022-12-31T04:04:02.266Z,6.6
2022-12-31T04:05:02.133Z,6.6
2022-12-31T04:06:02.143Z,6.7
2022-12-31T04:07:01.994Z,6.7
2022-12-31T04:08:01.970Z,6.7
2022-12-31T04:09:02.053Z,6.7
2022-12-31T04:10:01.890Z,6.7
2022-12-31T04:11:01.826Z,6.8
2022-12-31T04:12:01.782Z,6.7
2022-12-31T04:13:01.673Z,6.7
2022-12-31T04:14:01.704Z,6.7
2022-12-31T04:15:01.535Z,6.7
2022-12-31T04:16:01.612Z,6.8
2022-12-31T04:17:01.386Z,6.8
2022-12-31T04:18:01.428Z,6.8
2022-12-31T04:19:02.389Z,6.9
2022-12-31T04:20:02.236Z,6.8
2022-12-31T04:21:02.281Z,6.9
2022-12-31T04:22:02.149Z,6.9
2022-12-31T04:23:02.111Z,6.9
2022-12-31T04:24:01.942Z,6.9
2022-12-31T04:25:02.067Z,6.9
2022-12-31T04:26:02.098Z,6.9
2022-12-31T04:27:07.214Z,7
2022-12-31T04:28:01.765Z,7
2022-12-31T04:29:01.821Z,7
2022-12-31T04:30:01.671Z,7
2022-12-31T04:31:01.684Z,7
2022-12-31T04:32:01.528Z,7.1
2022-12-31T04:33:01.629Z,7.1
2022-12-31T04:34:01.470Z,7.1
2022-12-31T04:35:01.502Z,7.1
2022-12-31T04:36:01.347Z,7.1
2022-12-31T04:37:02.361Z,7.1
2022-12-31T04:38:02.296Z,7.1
2022-12-31T04:39:02.294Z,7.1
2022-12-31T04:40:06.103Z,7.1
2022-12-31T04:41:01.530Z,7.1
2022-12-31T04:42:01.459Z,7.1
2022-12-31T04:43:01.381Z,7.1
2022-12-31T04:44:01.402Z,7.1
2022-12-31T04:45:02.436Z,7.1
2022-12-31T04:46:02.308Z,7.1
2022-12-31T04:47:02.010Z,7.2
2022-12-31T04:48:02.028Z,7.2
2022-12-31T04:49:01.926Z,7.2
2022-12-31T04:50:01.826Z,7.2
2022-12-31T04:51:01.828Z,7.2
2022-12-31T04:52:01.667Z,7.3
2022-12-31T04:53:01.605Z,7.2
2022-12-31T04:54:01.464Z,7.3
2022-12-31T04:55:01.521Z,7.3
2022-12-31T04:56:01.394Z,7.3
2022-12-31T04:57:01.399Z,7.4
2022-12-31T04:58:01.361Z,7.3
2022-12-31T04:59:01.403Z,7.3
2022-12-31T05:00:01.319Z,7.3
2022-12-31T05:01:01.494Z,7.4
2022-12-31T05:02:01.607Z,7.4
2022-12-31T05:03:02.271Z,7.4
2022-12-31T05:04:02.292Z,7.4
2022-12-31T05:05:02.150Z,7.4
2022-12-31T05:06:02.178Z,7.4
2022-12-31T05:07:01.969Z,7.4
2022-12-31T05:08:02.084Z,7.4
2022-12-31T05:09:01.920Z,7.5
2022-12-31T05:10:01.840Z,7.4
2022-12-31T05:11:01.825Z,7.5
2022-12-31T05:12:01.778Z,7.5
2022-12-31T05:13:01.585Z,7.5
2022-12-31T05:14:01.618Z,7.5
2022-12-31T05:15:01.396Z,7.5
2022-12-31T05:16:01.513Z,7.5
2022-12-31T05:17:01.908Z,7.6
2022-12-31T05:18:01.810Z,7.5
2022-12-31T05:19:01.792Z,7.6
2022-12-31T05:20:01.656Z,7.5
2022-12-31T05:21:01.667Z,7.5
2022-12-31T05:22:01.507Z,7.6
2022-12-31T05:23:01.439Z,7.5
2022-12-31T05:24:01.336Z,7.6
2022-12-31T05:25:02.376Z,7.5
2022-12-31T05:26:02.230Z,7.5
2022-12-31T05:27:02.262Z,7.6
2022-12-31T05:28:02.260Z,7.5
2022-12-31T05:29:02.283Z,7.6
2022-12-31T05:30:02.171Z,7.6
2022-12-31T05:31:02.362Z,7.6
2022-12-31T05:32:02.051Z,7.6
2022-12-31T05:33:02.172Z,7.6
2022-12-31T05:34:02.117Z,7.6
2022-12-31T05:35:01.980Z,7.6
2022-12-31T05:36:01.994Z,7.6
2022-12-31T05:37:01.815Z,7.6
2022-12-31T05:38:01.730Z,7.6
2022-12-31T05:39:01.710Z,7.6
2022-12-31T05:40:01.560Z,7.6
2022-12-31T05:41:01.488Z,7.6
2022-12-31T05:42:01.365Z,7.7
2022-12-31T05:43:02.349Z,7.7
2022-12-31T05:44:02.245Z,7.6
2022-12-31T05:45:02.309Z,7.6
2022-12-31T05:46:02.253Z,7.6
2022-12-31T05:47:02.154Z,7.7
2022-12-31T05:48:02.187Z,7.7
2022-12-31T05:49:02.081Z,7.7
2022-12-31T05:50:02.233Z,7.7
2022-12-31T05:51:02.116Z,7.7
2022-12-31T05:52:02.183Z,7.8
2022-12-31T05:53:02.034Z,7.7
2022-12-31T05:54:02.093Z,7.7
2022-12-31T05:55:01.938Z,7.7
2022-12-31T05:56:01.814Z,7.7
2022-12-31T05:57:01.840Z,7.8
2022-12-31T05:58:01.687Z,7.8
2022-12-31T05:59:01.670Z,7.8
2022-12-31T06:00:01.507Z,7.8
2022-12-31T06:01:01.470Z,7.8
2022-12-31T06:02:02.398Z,7.8
2022-12-31T06:03:02.376Z,7.8
2022-12-31T06:04:01.635Z,7.8
2022-12-31T06:05:01.502Z,7.8
2022-12-31T06:06:01.523Z,7.8
2022-12-31T06:07:01.452Z,7.8
2022-12-31T06:08:02.392Z,7.9
2022-12-31T06:09:02.271Z,7.9
2022-12-31T06:10:02.345Z,7.9
2022-12-31T06:11:02.183Z,7.9
2022-12-31T06:12:02.305Z,7.9
2022-12-31T06:13:02.135Z,7.9
2022-12-31T06:14:02.216Z,7.9
2022-12-31T06:15:02.113Z,7.9
2022-12-31T06:16:02.250Z,8
2022-12-31T06:17:02.037Z,8
2022-12-31T06:18:02.071Z,8
2022-12-31T06:19:02.017Z,8
2022-12-31T06:20:04.907Z,8
2022-12-31T06:21:01.946Z,8
2022-12-31T06:22:01.976Z,8.1
2022-12-31T06:23:01.859Z,8.1
2022-12-31T06:24:01.668Z,8.1
2022-12-31T06:25:01.673Z,8.1
2022-12-31T06:26:01.528Z,8.1
2022-12-31T06:27:01.518Z,8.1
2022-12-31T06:28:01.345Z,8.1
2022-12-31T06:29:02.401Z,8.1
2022-12-31T06:30:02.229Z,8.1
2022-12-31T06:31:02.271Z,8.1
2022-12-31T06:32:02.038Z,8.1
2022-12-31T06:33:02.144Z,8.1
2022-12-31T06:34:01.995Z,8.1
2022-12-31T06:35:01.966Z,8.1
2022-12-31T06:36:01.996Z,8.1
2022-12-31T06:37:01.844Z,8.1
2022-12-31T06:38:01.744Z,8.1
2022-12-31T06:39:01.780Z,8.1
2022-12-31T06:40:01.617Z,8.2
2022-12-31T06:41:01.601Z,8.2
2022-12-31T06:42:01.437Z,8.2
2022-12-31T06:43:01.478Z,8.2
2022-12-31T06:44:01.333Z,8.2
2022-12-31T06:45:02.384Z,8.2
2022-12-31T06:46:02.361Z,8.2
2022-12-31T06:47:01.400Z,8.3
2022-12-31T06:48:01.445Z,8.2
2022-12-31T06:49:01.326Z,8.2
2022-12-31T06:50:02.373Z,8.3
2022-12-31T06:51:02.182Z,8.3
2022-12-31T06:52:02.233Z,8.3
2022-12-31T06:53:02.103Z,8.3
2022-12-31T06:54:02.141Z,8.3
2022-12-31T06:55:01.971Z,8.4
2022-12-31T06:56:01.919Z,8.4
2022-12-31T06:57:01.975Z,8.4
2022-12-31T06:58:01.879Z,8.4
2022-12-31T06:59:01.732Z,8.4
2022-12-31T07:00:01.834Z,8.4
2022-12-31T07:01:01.666Z,8.4
2022-12-31T07:02:01.525Z,8.4
2022-12-31T07:03:01.788Z,8.4
2022-12-31T07:04:01.746Z,8.4
2022-12-31T07:05:01.809Z,8.4
2022-12-31T07:06:01.675Z,8.5
2022-12-31T07:07:01.715Z,8.5
2022-12-31T07:08:01.539Z,8.5
2022-12-31T07:09:01.503Z,8.5
2022-12-31T07:10:01.351Z,8.5
2022-12-31T07:11:02.359Z,8.5
2022-12-31T07:12:01.330Z,8.6
2022-12-31T07:13:02.328Z,8.6
2022-12-31T07:14:02.273Z,8.6
2022-12-31T07:15:02.285Z,8.5
2022-12-31T07:16:02.163Z,8.5
2022-12-31T07:17:02.180Z,8.6
2022-12-31T07:18:02.181Z,8.6
2022-12-31T07:19:02.057Z,8.6
2022-12-31T07:20:02.130Z,8.6
2022-12-31T07:21:01.918Z,8.7
2022-12-31T07:22:01.831Z,8.7
2022-12-31T07:23:01.850Z,8.7
2022-12-31T07:24:01.698Z,8.7
2022-12-31T07:25:01.376Z,8.8
2022-12-31T07:26:02.319Z,8.8
2022-12-31T07:27:02.217Z,8.8
2022-12-31T07:28:02.305Z,8.8
2022-12-31T07:29:02.169Z,8.7
2022-12-31T07:30:02.353Z,8.7
2022-12-31T07:31:02.207Z,8.7
2022-12-31T07:32:02.219Z,8.7
2022-12-31T07:33:02.259Z,8.7
2022-12-31T07:34:02.145Z,8.7
2022-12-31T07:35:02.205Z,8.7
2022-12-31T07:36:02.061Z,8.7
2022-12-31T07:37:02.100Z,8.7
2022-12-31T07:38:01.945Z,8.8
2022-12-31T07:39:01.877Z,8.8
2022-12-31T07:40:01.915Z,8.7
2022-12-31T07:41:05.616Z,8.8
2022-12-31T07:42:01.806Z,8.8
2022-12-31T07:43:01.787Z,8.9
2022-12-31T07:44:01.684Z,8.9
2022-12-31T07:45:01.644Z,8.8
2022-12-31T07:46:01.468Z,8.8
2022-12-31T07:47:01.663Z,8.9
2022-12-31T07:48:02.885Z,8.9
2022-12-31T07:49:01.897Z,9
2022-12-31T07:50:01.795Z,9
2022-12-31T07:51:01.733Z,9.1
2022-12-31T07:52:01.589Z,9
2022-12-31T07:53:01.639Z,9.1
2022-12-31T07:54:01.448Z,9.2
2022-12-31T07:55:01.424Z,9.2
2022-12-31T07:56:02.344Z,9.1
2022-12-31T07:57:02.191Z,9.1
2022-12-31T07:58:02.337Z,9.2
2022-12-31T07:59:02.208Z,9.2
2022-12-31T08:00:02.252Z,9.2
2022-12-31T08:01:02.161Z,9.2
2022-12-31T08:02:01.616Z,9.1
2022-12-31T08:03:02.113Z,9.2
2022-12-31T08:04:02.087Z,9.2
2022-12-31T08:05:02.090Z,9.2
2022-12-31T08:06:02.045Z,9.2
2022-12-31T08:07:01.889Z,9.3
2022-12-31T08:08:01.776Z,9.2
2022-12-31T08:09:01.811Z,9.3
2022-12-31T08:10:01.664Z,9.3
2022-12-31T08:11:01.719Z,9.2
2022-12-31T08:12:01.524Z,9.2
2022-12-31T08:13:01.524Z,9.2
2022-12-31T08:14:01.374Z,9.1
2022-12-31T08:15:02.409Z,9.1
2022-12-31T08:16:02.335Z,9
2022-12-31T08:17:01.471Z,9.1
2022-12-31T08:18:01.509Z,9.1
2022-12-31T08:19:01.344Z,9.2
2022-12-31T08:20:01.431Z,9.3
2022-12-31T08:21:02.395Z,9.3
2022-12-31T08:22:02.275Z,9.4
2022-12-31T08:23:02.343Z,9.4
2022-12-31T08:24:02.158Z,9.3
2022-12-31T08:25:02.186Z,9.3
2022-12-31T08:26:02.088Z,9.3
2022-12-31T08:27:02.130Z,9.4
2022-12-31T08:28:01.946Z,9.5
2022-12-31T08:29:01.846Z,9.4
2022-12-31T08:30:01.905Z,9.6
2022-12-31T08:31:01.760Z,9.5
2022-12-31T08:32:01.611Z,9.6
2022-12-31T08:33:01.612Z,9.6
2022-12-31T08:34:05.695Z,9.7
2022-12-31T08:35:01.951Z,9.7
2022-12-31T08:36:01.966Z,9.5
2022-12-31T08:37:01.832Z,9.6
2022-12-31T08:38:01.923Z,9.5
2022-12-31T08:39:01.971Z,9.5
2022-12-31T08:40:01.762Z,9.5
2022-12-31T08:41:01.623Z,9.5
2022-12-31T08:42:01.661Z,9.5
2022-12-31T08:43:01.429Z,9.5
2022-12-31T08:44:01.461Z,9.5
2022-12-31T08:45:01.357Z,9.5
2022-12-31T08:46:02.346Z,9.5
2022-12-31T08:47:01.337Z,9.5
2022-12-31T08:48:02.361Z,9.5
2022-12-31T08:49:02.293Z,9.4
2022-12-31T08:50:02.345Z,9.5
2022-12-31T08:51:02.185Z,9.4
2022-12-31T08:52:02.260Z,9.4
2022-12-31T08:53:02.189Z,9.5
2022-12-31T08:54:02.250Z,9.5
2022-12-31T08:55:02.145Z,9.5
2022-12-31T08:56:02.199Z,9.6
2022-12-31T08:57:02.116Z,9.6
2022-12-31T08:58:02.172Z,9.6
2022-12-31T08:59:01.998Z,9.7
2022-12-31T09:00:01.976Z,9.8
2022-12-31T09:01:02.186Z,9.9
2022-12-31T09:02:02.504Z,9.9
2022-12-31T09:03:01.719Z,9.9
2022-12-31T09:04:01.748Z,9.8
2022-12-31T09:05:01.601Z,9.9
2022-12-31T09:06:01.639Z,9.8
2022-12-31T09:07:01.461Z,9.9
2022-12-31T09:08:01.459Z,10
2022-12-31T09:09:01.334Z,10
2022-12-31T09:10:02.398Z,10
2022-12-31T09:11:02.211Z,10.1
2022-12-31T09:12:02.283Z,10.1
2022-12-31T09:13:02.166Z,10
2022-12-31T09:14:02.211Z,10.1
2022-12-31T09:15:02.125Z,10
2022-12-31T09:16:02.092Z,10
2022-12-31T09:17:02.046Z,10
2022-12-31T09:18:01.993Z,10
2022-12-31T09:19:01.951Z,10
2022-12-31T09:20:01.748Z,9.9
2022-12-31T09:21:01.710Z,10
2022-12-31T09:22:01.762Z,10.1
2022-12-31T09:23:01.582Z,10.2
2022-12-31T09:24:05.999Z,10.2
2022-12-31T09:25:01.338Z,10.3
2022-12-31T09:26:02.416Z,10.4
2022-12-31T09:27:02.260Z,10.5
2022-12-31T09:28:02.282Z,10.4
2022-12-31T09:29:02.202Z,10.4
2022-12-31T09:30:02.215Z,10.4
2022-12-31T09:31:02.076Z,10.4
2022-12-31T09:32:02.042Z,10.5
2022-12-31T09:33:02.129Z,10.4
2022-12-31T09:34:01.962Z,10.4
2022-12-31T09:35:01.915Z,10.7
2022-12-31T09:36:01.898Z,10.5
2022-12-31T09:37:01.692Z,10.4
2022-12-31T09:38:04.156Z,10.5
2022-12-31T09:39:01.471Z,10.4
2022-12-31T09:40:01.467Z,10.3
2022-12-31T09:41:02.416Z,10.4
2022-12-31T09:42:02.259Z,10.5
2022-12-31T09:43:02.317Z,10.4
2022-12-31T09:44:02.169Z,10.5
2022-12-31T09:45:02.252Z,10.4
2022-12-31T09:46:02.154Z,10.4
2022-12-31T09:47:01.952Z,10.4
2022-12-31T09:48:02.049Z,10.3
2022-12-31T09:49:01.878Z,10.5
2022-12-31T09:50:01.846Z,10.5
2022-12-31T09:51:01.870Z,10.6
2022-12-31T09:52:01.726Z,10.6
2022-12-31T09:53:01.722Z,10.7
2022-12-31T09:54:01.573Z,10.7
2022-12-31T09:55:01.492Z,10.7
2022-12-31T09:56:01.352Z,10.8
2022-12-31T09:57:02.415Z,10.7
2022-12-31T09:58:01.374Z,10.7
2022-12-31T09:59:01.445Z,10.8
2022-12-31T10:00:02.387Z,10.7
2022-12-31T10:01:01.381Z,10.6
2022-12-31T10:02:01.714Z,10.7
2022-12-31T10:03:02.273Z,10.6
2022-12-31T10:04:02.156Z,10.6
2022-12-31T10:05:02.214Z,10.7
2022-12-31T10:06:02.106Z,10.7
2022-12-31T10:07:02.170Z,10.7
2022-12-31T10:08:02.089Z,10.7
2022-12-31T10:09:02.185Z,10.7
2022-12-31T10:10:02.070Z,10.7
2022-12-31T10:11:01.990Z,10.8
2022-12-31T10:12:01.889Z,10.7
2022-12-31T10:13:01.925Z,10.7
2022-12-31T10:14:01.789Z,10.8
2022-12-31T10:15:01.816Z,10.8
2022-12-31T10:16:01.668Z,10.8
2022-12-31T10:17:01.519Z,10.8
2022-12-31T10:18:01.516Z,10.9
2022-12-31T10:19:01.379Z,10.9
2022-12-31T10:20:02.394Z,10.9
2022-12-31T10:21:01.323Z,10.9
2022-12-31T10:22:02.343Z,11
2022-12-31T10:23:01.338Z,10.9
2022-12-31T10:24:02.323Z,11
2022-12-31T10:25:02.243Z,11
2022-12-31T10:26:02.364Z,11.1
2022-12-31T10:27:02.256Z,11
2022-12-31T10:28:02.361Z,11
2022-12-31T10:29:02.302Z,11.1
2022-12-31T10:30:02.345Z,11
2022-12-31T10:31:02.182Z,11
2022-12-31T10:32:02.126Z,11
2022-12-31T10:33:02.190Z,11
2022-12-31T10:34:02.049Z,11
2022-12-31T10:35:02.087Z,11
2022-12-31T10:36:01.948Z,11
2022-12-31T10:37:01.911Z,11
2022-12-31T10:38:01.903Z,11
2022-12-31T10:39:02.461Z,11
2022-12-31T10:40:01.302Z,11
2022-12-31T10:41:02.351Z,11
2022-12-31T10:42:02.291Z,11
2022-12-31T10:43:02.355Z,11.1
2022-12-31T10:44:02.248Z,11.1
2022-12-31T10:45:02.317Z,11.2
2022-12-31T10:46:02.225Z,11.2
2022-12-31T10:47:02.106Z,11.2
2022-12-31T10:48:02.138Z,11.2
2022-12-31T10:49:01.941Z,11.3
2022-12-31T10:50:01.906Z,11.3
2022-12-31T10:51:01.935Z,11.3
2022-12-31T10:52:01.759Z,11.3
2022-12-31T10:53:01.781Z,11.3
2022-12-31T10:54:01.635Z,11.3
2022-12-31T10:55:01.673Z,11.4
2022-12-31T10:56:01.683Z,11.4
2022-12-31T10:57:01.618Z,11.4
2022-12-31T10:58:04.183Z,11.4
2022-12-31T10:59:01.362Z,11.4
2022-12-31T11:00:01.446Z,11.5
2022-12-31T11:01:02.371Z,11.5
2022-12-31T11:02:01.427Z,11.6
2022-12-31T11:03:01.571Z,11.5
2022-12-31T11:04:01.609Z,11.6
2022-12-31T11:05:01.438Z,11.6
2022-12-31T11:06:01.363Z,11.7
2022-12-31T11:07:02.416Z,11.7
2022-12-31T11:08:02.262Z,11.7
2022-12-31T11:09:02.439Z,11.8
2022-12-31T11:10:01.325Z,11.8
2022-12-31T11:11:02.378Z,11.8
2022-12-31T11:12:02.243Z,12
2022-12-31T11:13:02.293Z,12
2022-12-31T11:14:02.136Z,12
2022-12-31T11:15:02.186Z,12
2022-12-31T11:16:02.079Z,12.1
2022-12-31T11:17:01.886Z,12.1
2022-12-31T11:18:01.918Z,12.2
2022-12-31T11:19:01.801Z,12.1
2022-12-31T11:20:01.719Z,12.2
2022-12-31T11:21:01.714Z,12.2
2022-12-31T11:22:01.540Z,12.2
2022-12-31T11:23:01.501Z,12.3
2022-12-31T11:24:01.381Z,12.3
2022-12-31T11:25:01.390Z,12.2
2022-12-31T11:26:02.376Z,12.3
2022-12-31T11:27:02.208Z,12.3
2022-12-31T11:28:02.296Z,12.2
2022-12-31T11:29:02.222Z,12.4
2022-12-31T11:30:02.401Z,12.3
2022-12-31T11:31:02.227Z,12.4
2022-12-31T11:32:02.266Z,12.4
2022-12-31T11:33:02.279Z,12.5
2022-12-31T11:34:02.190Z,12.5
2022-12-31T11:35:02.256Z,12.5
2022-12-31T11:36:02.084Z,12.5
2022-12-31T11:37:02.114Z,12.5
2022-12-31T11:38:01.950Z,12.5
2022-12-31T11:39:01.835Z,12.6
2022-12-31T11:40:01.897Z,12.5
2022-12-31T11:41:01.755Z,12.5
2022-12-31T11:42:01.721Z,12.6
2022-12-31T11:43:01.697Z,12.7
2022-12-31T11:44:01.570Z,12.6
2022-12-31T11:45:01.564Z,12.7
2022-12-31T11:46:01.379Z,12.7
2022-12-31T11:47:01.414Z,12.7
2022-12-31T11:48:29.460Z,12.8
2022-12-31T11:49:01.965Z,12.8
2022-12-31T11:50:01.909Z,12.9
2022-12-31T11:51:01.873Z,12.9
2022-12-31T11:52:01.729Z,13
2022-12-31T11:53:01.741Z,13
2022-12-31T11:54:01.582Z,13.1
2022-12-31T11:55:01.518Z,13.1
2022-12-31T11:56:01.397Z,13.1
2022-12-31T11:57:02.400Z,13.2
2022-12-31T11:58:02.243Z,13.2
2022-12-31T11:59:06.226Z,13.1
2022-12-31T12:00:01.656Z,13.1
2022-12-31T12:01:01.653Z,13.1
2022-12-31T12:02:01.492Z,13
2022-12-31T12:03:01.594Z,13.2
2022-12-31T12:04:01.420Z,13.1
2022-12-31T12:05:06.474Z,13.1
2022-12-31T12:06:02.255Z,13.1
2022-12-31T12:07:02.041Z,13.1
2022-12-31T12:08:02.024Z,13
2022-12-31T12:09:01.948Z,13.1
2022-12-31T12:10:01.907Z,13.1
2022-12-31T12:11:01.852Z,13.2
2022-12-31T12:12:01.687Z,13
2022-12-31T12:13:01.731Z,12.8
2022-12-31T12:14:01.583Z,12.9
2022-12-31T12:15:01.559Z,12.9
2022-12-31T12:16:01.527Z,12.9
2022-12-31T12:17:04.987Z,12.7
2022-12-31T12:18:01.426Z,12.8
2022-12-31T12:19:01.459Z,12.7
2022-12-31T12:20:01.345Z,12.7
2022-12-31T12:21:02.382Z,12.5
2022-12-31T12:22:02.289Z,12.4
2022-12-31T12:23:02.286Z,12.5
2022-12-31T12:24:02.176Z,12.5
2022-12-31T12:25:02.256Z,12.5
2022-12-31T12:26:02.141Z,12.5
2022-12-31T12:27:02.169Z,12.4
2022-12-31T12:28:02.051Z,12.3
2022-12-31T12:29:02.159Z,12.4
2022-12-31T12:30:01.947Z,12.3
2022-12-31T12:31:01.924Z,12.3
2022-12-31T12:32:01.868Z,12.3
2022-12-31T12:33:01.919Z,12.3
2022-12-31T12:34:01.775Z,12.2
2022-12-31T12:35:01.643Z,12.3
2022-12-31T12:36:01.639Z,12.2
2022-12-31T12:37:01.466Z,12.2
2022-12-31T12:38:01.453Z,12.2
2022-12-31T12:39:01.381Z,12.1
2022-12-31T12:40:02.381Z,12.2
2022-12-31T12:41:02.209Z,12.2
2022-12-31T12:42:02.215Z,12.2
2022-12-31T12:43:02.125Z,12.2
2022-12-31T12:44:02.159Z,12.2
2022-12-31T12:45:02.022Z,12.1
2022-12-31T12:46:01.959Z,12.2
2022-12-31T12:47:01.835Z,12.2
2022-12-31T12:48:01.817Z,12.1
2022-12-31T12:49:01.689Z,12.1
2022-12-31T12:50:01.700Z,12.1
2022-12-31T12:51:01.498Z,12.1
2022-12-31T12:52:01.567Z,12.1
2022-12-31T12:53:01.386Z,12.1
2022-12-31T12:54:01.462Z,12.1
2022-12-31T12:55:01.346Z,12.1
2022-12-31T12:56:01.417Z,12.1
2022-12-31T12:57:01.336Z,12.1
2022-12-31T12:58:01.488Z,12.1
2022-12-31T12:59:01.383Z,12.1
2022-12-31T13:00:01.455Z,12.1
2022-12-31T13:01:01.473Z,12.1
2022-12-31T13:02:01.758Z,12.1
2022-12-31T13:03:01.996Z,12.1
2022-12-31T13:04:33.813Z,12.1
2022-12-31T13:05:01.415Z,12.1
2022-12-31T13:06:01.518Z,12.2
2022-12-31T13:07:01.383Z,12.1
2022-12-31T13:08:01.414Z,12.2
2022-12-31T13:09:01.388Z,12.1
2022-12-31T13:10:01.515Z,12.1
2022-12-31T13:11:01.338Z,12.2
2022-12-31T13:12:07.236Z,12.2
2022-12-31T13:13:25.318Z,12.1
2022-12-31T13:14:01.741Z,12.1
2022-12-31T13:15:01.737Z,12.1
2022-12-31T13:16:01.646Z,12.1
2022-12-31T13:17:01.677Z,12.2
2022-12-31T13:18:02.333Z,12.2
2022-12-31T13:19:02.318Z,12.1
2022-12-31T13:20:02.182Z,12.1
2022-12-31T13:21:02.230Z,12.2
2022-12-31T13:22:02.065Z,12.2
2022-12-31T13:23:01.967Z,12.2
2022-12-31T13:24:01.833Z,12.2
2022-12-31T13:25:01.751Z,12.2
2022-12-31T13:26:01.695Z,12.2
2022-12-31T13:27:01.558Z,12.2
2022-12-31T13:28:01.607Z,12.3
2022-12-31T13:29:01.551Z,12.2
2022-12-31T13:30:01.493Z,12.2
2022-12-31T13:31:06.450Z,12.2
2022-12-31T13:32:01.962Z,12.2
2022-12-31T13:33:01.856Z,12.2
2022-12-31T13:34:01.682Z,12.1
2022-12-31T13:35:01.731Z,12.2
2022-12-31T13:36:01.681Z,12.1
2022-12-31T13:37:01.708Z,12.3
2022-12-31T13:38:05.256Z,12.2
2022-12-31T13:39:01.762Z,12.2
2022-12-31T13:40:01.839Z,12.1
2022-12-31T13:41:01.680Z,12.1
2022-12-31T13:42:01.794Z,12.2